createdAt,value
2019-02-19T00:00:22.358Z,3.03
2019-02-19T00:01:22.383Z,2.96
2019-02-19T00:02:22.410Z,2.84
2019-02-19T00:03:22.436Z,2.82
2019-02-19T00:04:22.463Z,2.89
2019-02-19T00:05:22.489Z,2.89
2019-02-19T00:06:22.529Z,2.89
2019-02-19T00:07:22.535Z,2.85
2019-02-19T00:08:22.561Z,2.96
2019-02-19T00:09:22.586Z,2.89
2019-02-19T00:10:22.614Z,2.81
2019-02-19T00:11:22.635Z,2.72
2019-02-19T00:12:22.662Z,2.69
2019-02-19T00:13:22.689Z,2.59
2019-02-19T00:14:22.714Z,2.41
2019-02-19T00:15:22.739Z,2.28
2019-02-19T00:16:22.765Z,2.27
2019-02-19T00:17:22.789Z,2.10
2019-02-19T00:18:22.815Z,2.03
2019-02-19T00:19:22.842Z,2.00
2019-02-19T00:20:22.865Z,1.81
2019-02-19T00:21:22.892Z,1.80
2019-02-19T00:22:22.922Z,1.81
2019-02-19T00:23:22.941Z,1.83
2019-02-19T00:24:22.967Z,1.88
2019-02-19T00:25:22.991Z,2.16
2019-02-19T00:26:23.019Z,2.23
2019-02-19T00:27:23.042Z,2.21
2019-02-19T00:28:23.070Z,2.30
2019-02-19T00:29:23.092Z,2.27
2019-02-19T00:30:23.119Z,2.36
2019-02-19T00:31:23.144Z,2.27
2019-02-19T00:32:23.168Z,2.30
2019-02-19T00:33:23.194Z,2.39
2019-02-19T00:34:23.219Z,2.38
2019-02-19T00:35:23.243Z,2.42
2019-02-19T00:36:23.268Z,2.31
2019-02-19T00:37:23.295Z,2.23
2019-02-19T00:38:23.319Z,2.31
2019-02-19T00:39:23.345Z,2.27
2019-02-19T00:40:23.369Z,2.18
2019-02-19T00:41:23.395Z,2.12
2019-02-19T00:42:23.419Z,1.99
2019-02-19T00:43:23.445Z,1.95
2019-02-19T00:44:23.471Z,1.84
2019-02-19T00:45:23.495Z,1.80
2019-02-19T00:46:23.521Z,1.73
2019-02-19T00:47:23.545Z,1.72
2019-02-19T00:48:23.570Z,1.62
2019-02-19T00:49:23.597Z,1.68
2019-02-19T00:50:23.620Z,1.68
2019-02-19T00:51:23.647Z,1.76
2019-02-19T00:52:23.669Z,1.63
2019-02-19T00:53:23.696Z,1.83
2019-02-19T00:54:23.722Z,1.87
2019-02-19T00:55:23.744Z,1.88
2019-02-19T00:56:23.771Z,1.98
2019-02-19T00:57:23.795Z,1.84
2019-02-19T00:58:23.821Z,1.93
2019-02-19T00:59:23.846Z,1.91
2019-02-19T01:00:23.872Z,1.98
2019-02-19T01:01:23.896Z,2.00
2019-02-19T01:02:23.922Z,1.93
2019-02-19T01:03:23.948Z,1.87
2019-02-19T01:04:23.972Z,1.83
2019-02-19T01:05:23.997Z,1.76
2019-02-19T01:06:24.026Z,1.84
2019-02-19T01:07:24.049Z,1.90
2019-02-19T01:08:24.071Z,1.98
2019-02-19T01:09:24.097Z,1.98
2019-02-19T01:10:24.123Z,2.09
2019-02-19T01:11:24.154Z,2.06
2019-02-19T01:12:24.172Z,2.05
2019-02-19T01:13:24.197Z,2.03
2019-02-19T01:14:24.223Z,1.95
2019-02-19T01:15:25.700Z,1.83
2019-02-19T01:16:24.271Z,1.79
2019-02-19T01:17:24.434Z,1.81
2019-02-19T01:18:24.323Z,1.80
2019-02-19T01:19:24.353Z,1.81
2019-02-19T01:20:24.372Z,1.79
2019-02-19T01:21:24.396Z,1.81
2019-02-19T01:22:24.422Z,1.84
2019-02-19T01:23:24.447Z,1.79
2019-02-19T01:24:24.473Z,1.65
2019-02-19T01:25:24.498Z,1.66
2019-02-19T01:26:24.522Z,1.59
2019-02-19T01:27:24.548Z,1.47
2019-02-19T01:28:24.573Z,1.51
2019-02-19T01:29:24.596Z,1.42
2019-02-19T01:30:24.624Z,1.42
2019-02-19T01:31:24.647Z,1.47
2019-02-19T01:32:24.672Z,1.44
2019-02-19T01:33:24.697Z,1.40
2019-02-19T01:34:24.721Z,1.44
2019-02-19T01:35:24.749Z,1.42
2019-02-19T01:36:24.772Z,1.63
2019-02-19T01:37:24.796Z,1.65
2019-02-19T01:38:24.821Z,1.62
2019-02-19T01:39:24.848Z,1.58
2019-02-19T01:40:24.870Z,1.59
2019-02-19T01:41:24.896Z,1.66
2019-02-19T01:42:24.922Z,1.65
2019-02-19T01:43:24.945Z,1.81
2019-02-19T01:44:24.972Z,1.90
2019-02-19T01:45:24.996Z,1.84
2019-02-19T01:46:25.020Z,1.81
2019-02-19T01:47:25.100Z,1.83
2019-02-19T01:48:25.071Z,1.81
2019-02-19T01:49:25.096Z,1.77
2019-02-19T01:50:25.121Z,1.68
2019-02-19T01:51:25.146Z,1.62
2019-02-19T01:52:25.169Z,1.59
2019-02-19T01:53:25.195Z,1.48
2019-02-19T01:54:25.219Z,1.60
2019-02-19T01:55:25.243Z,1.50
2019-02-19T01:56:25.269Z,1.54
2019-02-19T01:57:25.294Z,1.54
2019-02-19T01:58:25.321Z,1.70
2019-02-19T01:59:25.344Z,1.65
2019-02-19T02:00:25.370Z,1.51
2019-02-19T02:01:25.444Z,1.55
2019-02-19T02:02:25.418Z,1.47
2019-02-19T02:03:25.445Z,1.41
2019-02-19T02:04:25.471Z,1.41
2019-02-19T02:05:25.495Z,1.41
2019-02-19T02:06:25.536Z,1.32
2019-02-19T02:07:25.543Z,1.37
2019-02-19T02:08:25.568Z,1.34
2019-02-19T02:09:25.593Z,1.32
2019-02-19T02:10:25.617Z,1.32
2019-02-19T02:11:25.641Z,1.34
2019-02-19T02:12:25.667Z,1.37
2019-02-19T02:13:25.692Z,1.36
2019-02-19T02:14:25.722Z,1.34
2019-02-19T02:15:25.743Z,1.40
2019-02-19T02:16:25.769Z,1.42
2019-02-19T02:17:25.795Z,1.45
2019-02-19T02:18:25.816Z,1.63
2019-02-19T02:19:25.842Z,1.66
2019-02-19T02:20:25.866Z,1.83
2019-02-19T02:21:25.891Z,1.84
2019-02-19T02:22:25.916Z,1.62
2019-02-19T02:23:25.940Z,1.63
2019-02-19T02:24:25.967Z,1.65
2019-02-19T02:25:25.990Z,1.54
2019-02-19T02:26:26.017Z,1.52
2019-02-19T02:27:26.039Z,1.41
2019-02-19T02:28:26.063Z,1.48
2019-02-19T02:29:26.090Z,1.40
2019-02-19T02:30:26.155Z,1.40
2019-02-19T02:31:26.139Z,1.32
2019-02-19T02:32:26.165Z,1.41
2019-02-19T02:33:26.189Z,1.50
2019-02-19T02:34:26.215Z,1.54
2019-02-19T02:35:26.239Z,1.63
2019-02-19T02:36:26.263Z,1.62
2019-02-19T02:37:26.288Z,1.76
2019-02-19T02:38:26.315Z,1.80
2019-02-19T02:39:26.338Z,1.76
2019-02-19T02:40:26.362Z,1.79
2019-02-19T02:41:26.390Z,1.79
2019-02-19T02:42:26.428Z,1.79
2019-02-19T02:43:26.438Z,1.72
2019-02-19T02:44:26.463Z,1.66
2019-02-19T02:45:26.490Z,1.55
2019-02-19T02:46:26.512Z,1.48
2019-02-19T02:47:26.538Z,1.40
2019-02-19T02:48:26.561Z,1.34
2019-02-19T02:49:26.589Z,1.44
2019-02-19T02:50:26.615Z,1.52
2019-02-19T02:51:26.635Z,1.52
2019-02-19T02:52:26.676Z,1.65
2019-02-19T02:53:26.686Z,1.80
2019-02-19T02:54:26.710Z,1.81
2019-02-19T02:55:26.735Z,1.83
2019-02-19T02:56:26.760Z,1.84
2019-02-19T02:57:26.784Z,1.80
2019-02-19T02:58:26.810Z,1.62
2019-02-19T02:59:26.832Z,1.66
2019-02-19T03:00:26.861Z,1.63
2019-02-19T03:01:26.885Z,1.76
2019-02-19T03:02:26.909Z,1.68
2019-02-19T03:03:26.940Z,1.63
2019-02-19T03:04:26.959Z,1.66
2019-02-19T03:05:26.983Z,1.66
2019-02-19T03:06:27.009Z,1.63
2019-02-19T03:07:27.034Z,1.66
2019-02-19T03:08:27.063Z,1.69
2019-02-19T03:09:27.083Z,1.63
2019-02-19T03:10:27.108Z,1.63
2019-02-19T03:11:27.133Z,1.80
2019-02-19T03:12:27.162Z,1.79
2019-02-19T03:13:27.183Z,1.83
2019-02-19T03:14:27.207Z,1.81
2019-02-19T03:15:27.233Z,1.87
2019-02-19T03:16:27.257Z,1.98
2019-02-19T03:17:27.283Z,1.99
2019-02-19T03:18:27.306Z,2.10
2019-02-19T03:19:27.337Z,2.17
2019-02-19T03:20:27.356Z,2.23
2019-02-19T03:21:27.381Z,2.21
2019-02-19T03:22:27.406Z,2.30
2019-02-19T03:23:27.431Z,2.20
2019-02-19T03:24:27.458Z,2.17
2019-02-19T03:25:27.481Z,2.05
2019-02-19T03:26:27.526Z,2.05
2019-02-19T03:27:27.530Z,1.99
2019-02-19T03:28:27.555Z,1.99
2019-02-19T03:29:29.835Z,2.00
2019-02-19T03:30:27.605Z,2.00
2019-02-19T03:31:27.630Z,1.95
2019-02-19T03:32:27.656Z,1.99
2019-02-19T03:33:27.682Z,2.09
2019-02-19T03:34:27.705Z,2.20
2019-02-19T03:35:27.729Z,2.24
2019-02-19T03:36:27.755Z,2.16
2019-02-19T03:37:27.784Z,2.03
2019-02-19T03:38:27.808Z,1.99
2019-02-19T03:39:27.828Z,1.91
2019-02-19T03:40:27.855Z,1.87
2019-02-19T03:41:27.896Z,1.81
2019-02-19T03:42:27.910Z,1.72
2019-02-19T03:43:27.928Z,1.62
2019-02-19T03:44:27.954Z,1.58
2019-02-19T03:45:27.980Z,1.50
2019-02-19T03:46:28.003Z,1.60
2019-02-19T03:47:28.028Z,1.58
2019-02-19T03:48:28.053Z,1.47
2019-02-19T03:49:28.078Z,1.52
2019-02-19T03:50:28.104Z,1.45
2019-02-19T03:51:28.132Z,1.65
2019-02-19T03:52:28.153Z,1.84
2019-02-19T03:53:28.177Z,1.87
2019-02-19T03:54:28.206Z,1.84
2019-02-19T03:55:28.228Z,1.81
2019-02-19T03:56:28.252Z,1.88
2019-02-19T03:57:28.278Z,1.93
2019-02-19T03:58:28.302Z,1.87
2019-02-19T03:59:28.332Z,1.86
2019-02-19T04:00:28.351Z,1.87
2019-02-19T04:01:28.380Z,1.95
2019-02-19T04:02:28.409Z,2.00
2019-02-19T04:03:28.427Z,2.02
2019-02-19T04:04:28.451Z,2.03
2019-02-19T04:05:28.480Z,2.17
2019-02-19T04:06:28.522Z,2.27
2019-02-19T04:07:28.532Z,2.12
2019-02-19T04:08:28.550Z,2.18
2019-02-19T04:09:29.780Z,2.21
2019-02-19T04:10:28.601Z,2.17
2019-02-19T04:11:28.625Z,2.18
2019-02-19T04:12:28.661Z,2.12
2019-02-19T04:13:28.675Z,2.12
2019-02-19T04:14:28.706Z,2.10
2019-02-19T04:15:28.727Z,2.17
2019-02-19T04:16:28.749Z,2.18
2019-02-19T04:17:28.788Z,2.06
2019-02-19T04:18:28.801Z,1.98
2019-02-19T04:19:28.826Z,1.98
2019-02-19T04:20:28.854Z,2.03
2019-02-19T04:21:28.875Z,2.00
2019-02-19T04:22:28.900Z,2.05
2019-02-19T04:23:28.933Z,2.12
2019-02-19T04:24:28.951Z,2.07
2019-02-19T04:25:28.976Z,2.10
2019-02-19T04:26:29.020Z,2.17
2019-02-19T04:27:29.025Z,2.03
2019-02-19T04:28:29.050Z,2.10
2019-02-19T04:29:29.078Z,2.05
2019-02-19T04:30:29.101Z,1.99
2019-02-19T04:31:29.127Z,1.95
2019-02-19T04:32:29.151Z,1.91
2019-02-19T04:33:29.176Z,1.91
2019-02-19T04:34:29.202Z,1.90
2019-02-19T04:35:29.225Z,1.84
2019-02-19T04:36:29.253Z,1.90
2019-02-19T04:37:30.113Z,1.88
2019-02-19T04:38:29.310Z,1.87
2019-02-19T04:39:29.378Z,1.90
2019-02-19T04:40:29.357Z,2.00
2019-02-19T04:41:29.378Z,1.98
2019-02-19T04:42:29.402Z,1.93
2019-02-19T04:43:29.427Z,1.98
2019-02-19T04:44:29.451Z,2.00
2019-02-19T04:45:29.477Z,2.10
2019-02-19T04:46:31.812Z,1.86
2019-02-19T04:47:29.527Z,1.91
2019-02-19T04:48:29.553Z,1.99
2019-02-19T04:49:29.579Z,1.91
2019-02-19T04:50:29.603Z,1.90
2019-02-19T04:51:29.627Z,1.87
2019-02-19T04:52:29.652Z,1.91
2019-02-19T04:53:29.719Z,1.83
2019-02-19T04:54:29.703Z,1.81
2019-02-19T04:55:29.728Z,1.93
2019-02-19T04:56:29.755Z,1.86
2019-02-19T04:57:29.790Z,2.00
2019-02-19T04:58:29.803Z,2.10
2019-02-19T04:59:29.832Z,2.18
2019-02-19T05:00:29.858Z,2.09
2019-02-19T05:01:29.879Z,2.09
2019-02-19T05:02:29.904Z,2.07
2019-02-19T05:03:29.928Z,2.12
2019-02-19T05:04:29.956Z,2.10
2019-02-19T05:05:29.987Z,2.10
2019-02-19T05:06:30.004Z,2.16
2019-02-19T05:07:30.027Z,2.16
2019-02-19T05:08:30.054Z,2.10
2019-02-19T05:09:30.079Z,2.07
2019-02-19T05:10:30.106Z,2.03
2019-02-19T05:11:30.129Z,1.99
2019-02-19T05:12:30.154Z,2.00
2019-02-19T05:13:30.181Z,1.88
2019-02-19T05:14:30.206Z,1.80
2019-02-19T05:15:30.229Z,1.80
2019-02-19T05:16:30.255Z,1.73
2019-02-19T05:17:30.283Z,1.60
2019-02-19T05:18:30.310Z,1.62
2019-02-19T05:19:30.329Z,1.66
2019-02-19T05:20:30.355Z,1.52
2019-02-19T05:21:30.387Z,1.55
2019-02-19T05:22:30.413Z,1.54
2019-02-19T05:23:30.430Z,1.58
2019-02-19T05:24:30.454Z,1.48
2019-02-19T05:25:30.479Z,1.59
2019-02-19T05:26:30.505Z,1.58
2019-02-19T05:27:30.533Z,1.54
2019-02-19T05:28:30.556Z,1.50
2019-02-19T05:29:30.580Z,1.47
2019-02-19T05:30:30.608Z,1.54
2019-02-19T05:31:30.630Z,1.51
2019-02-19T05:32:30.656Z,1.48
2019-02-19T05:33:30.683Z,1.58
2019-02-19T05:34:30.706Z,1.79
2019-02-19T05:35:30.731Z,1.87
2019-02-19T05:36:30.759Z,1.90
2019-02-19T05:37:30.782Z,1.90
2019-02-19T05:38:30.856Z,1.99
2019-02-19T05:39:30.837Z,1.95
2019-02-19T05:40:30.857Z,1.98
2019-02-19T05:41:30.884Z,1.88
2019-02-19T05:42:30.906Z,1.84
2019-02-19T05:43:30.930Z,1.88
2019-02-19T05:44:30.956Z,2.02
2019-02-19T05:45:30.981Z,2.18
2019-02-19T05:46:31.010Z,2.23
2019-02-19T05:47:31.041Z,2.36
2019-02-19T05:48:31.057Z,2.31
2019-02-19T05:49:31.082Z,2.31
2019-02-19T05:50:31.106Z,2.27
2019-02-19T05:51:31.135Z,2.27
2019-02-19T05:52:31.155Z,2.21
2019-02-19T05:53:31.181Z,2.23
2019-02-19T05:54:31.205Z,2.23
2019-02-19T05:55:31.230Z,2.17
2019-02-19T05:56:31.256Z,2.03
2019-02-19T05:57:31.283Z,1.98
2019-02-19T05:58:31.310Z,2.09
2019-02-19T05:59:32.561Z,2.20
2019-02-19T06:00:31.355Z,2.09
2019-02-19T06:01:31.380Z,2.16
2019-02-19T06:02:31.407Z,1.99
2019-02-19T06:03:31.431Z,1.93
2019-02-19T06:04:31.456Z,1.98
2019-02-19T06:05:31.480Z,1.88
2019-02-19T06:06:31.506Z,2.03
2019-02-19T06:07:31.529Z,1.93
2019-02-19T06:08:31.555Z,1.84
2019-02-19T06:09:31.580Z,1.79
2019-02-19T06:10:31.605Z,1.86
2019-02-19T06:11:31.629Z,1.88
2019-02-19T06:12:31.656Z,1.88
2019-02-19T06:13:31.681Z,1.86
2019-02-19T06:14:31.705Z,1.95
2019-02-19T06:15:31.729Z,1.90
2019-02-19T06:16:31.755Z,1.98
2019-02-19T06:17:31.780Z,1.98
2019-02-19T06:18:31.806Z,2.05
2019-02-19T06:19:31.830Z,2.03
2019-02-19T06:20:31.855Z,2.17
2019-02-19T06:21:31.881Z,2.23
2019-02-19T06:22:31.906Z,2.27
2019-02-19T06:23:31.931Z,2.35
2019-02-19T06:24:31.957Z,2.34
2019-02-19T06:25:31.983Z,2.43
2019-02-19T06:26:32.007Z,2.60
2019-02-19T06:27:32.032Z,2.64
2019-02-19T06:28:32.057Z,2.66
2019-02-19T06:29:32.084Z,2.85
2019-02-19T06:30:32.108Z,2.89
2019-02-19T06:31:32.131Z,3.03
2019-02-19T06:32:32.157Z,3.31
2019-02-19T06:33:32.182Z,3.18
2019-02-19T06:34:32.207Z,3.23
2019-02-19T06:35:32.232Z,3.31
2019-02-19T06:36:32.257Z,3.33
2019-02-19T06:37:32.287Z,3.36
2019-02-19T06:38:32.359Z,3.43
2019-02-19T06:39:32.335Z,3.43
2019-02-19T06:40:32.360Z,3.57
2019-02-19T06:41:32.385Z,3.62
2019-02-19T06:42:32.408Z,3.60
2019-02-19T06:43:32.434Z,3.54
2019-02-19T06:44:32.460Z,3.65
2019-02-19T06:45:32.486Z,3.68
2019-02-19T06:46:32.512Z,3.87
2019-02-19T06:47:32.537Z,3.93
2019-02-19T06:48:32.562Z,4.04
2019-02-19T06:49:32.589Z,4.23
2019-02-19T06:50:32.615Z,4.27
2019-02-19T06:51:32.639Z,4.40
2019-02-19T06:52:32.664Z,4.48
2019-02-19T06:53:32.689Z,4.50
2019-02-19T06:54:32.716Z,4.54
2019-02-19T06:55:32.740Z,4.72
2019-02-19T06:56:32.766Z,4.67
2019-02-19T06:57:32.797Z,4.84
2019-02-19T06:58:32.818Z,4.85
2019-02-19T06:59:32.849Z,4.88
2019-02-19T07:00:32.871Z,4.97
2019-02-19T07:01:32.916Z,4.89
2019-02-19T07:02:33.010Z,4.96
2019-02-19T07:03:32.947Z,4.88
2019-02-19T07:04:32.973Z,4.99
2019-02-19T07:05:33.042Z,4.96
2019-02-19T07:06:33.024Z,4.86
2019-02-19T07:07:33.050Z,4.89
2019-02-19T07:08:33.077Z,4.97
2019-02-19T07:09:33.103Z,5.00
2019-02-19T07:10:33.130Z,5.07
2019-02-19T07:11:33.154Z,5.33
2019-02-19T07:12:33.186Z,5.42
2019-02-19T07:13:33.207Z,5.40
2019-02-19T07:14:33.239Z,5.38
2019-02-19T07:15:33.258Z,5.40
2019-02-19T07:16:33.285Z,5.53
2019-02-19T07:17:33.312Z,5.53
2019-02-19T07:18:33.350Z,5.63
2019-02-19T07:19:33.365Z,5.72
2019-02-19T07:20:33.391Z,5.75
2019-02-19T07:21:33.418Z,5.83
2019-02-19T07:22:33.443Z,5.90
2019-02-19T07:23:33.469Z,5.97
2019-02-19T07:24:33.497Z,6.00
2019-02-19T07:25:33.522Z,6.01
2019-02-19T07:26:33.550Z,6.04
2019-02-19T07:27:33.580Z,6.14
2019-02-19T07:28:33.604Z,6.15
2019-02-19T07:29:33.629Z,6.25
2019-02-19T07:30:33.657Z,6.27
2019-02-19T07:31:33.682Z,6.30
2019-02-19T07:32:33.710Z,6.31
2019-02-19T07:33:33.737Z,6.33
2019-02-19T07:34:33.764Z,6.28
2019-02-19T07:35:33.789Z,6.28
2019-02-19T07:36:33.816Z,6.25
2019-02-19T07:37:33.843Z,6.36
2019-02-19T07:38:33.887Z,6.40
2019-02-19T07:39:33.897Z,6.18
2019-02-19T07:40:33.924Z,6.25
2019-02-19T07:41:33.952Z,6.17
2019-02-19T07:42:33.979Z,6.28
2019-02-19T07:43:34.010Z,6.34
2019-02-19T07:44:34.036Z,6.37
2019-02-19T07:45:34.061Z,6.56
2019-02-19T07:46:34.087Z,6.66
2019-02-19T07:47:34.114Z,6.59
2019-02-19T07:48:34.144Z,6.67
2019-02-19T07:49:34.169Z,6.80
2019-02-19T07:50:34.197Z,6.77
2019-02-19T07:51:34.223Z,6.89
2019-02-19T07:52:34.252Z,7.10
2019-02-19T07:53:34.280Z,7.12
2019-02-19T07:54:34.581Z,7.09
2019-02-19T07:55:34.341Z,7.07
2019-02-19T07:56:34.364Z,6.91
2019-02-19T07:57:34.390Z,6.92
2019-02-19T07:58:34.416Z,6.89
2019-02-19T07:59:34.447Z,6.92
2019-02-19T08:00:34.471Z,7.02
2019-02-19T08:01:34.500Z,6.77
2019-02-19T08:02:34.526Z,6.76
2019-02-19T08:03:34.554Z,6.87
2019-02-19T08:04:34.583Z,6.88
2019-02-19T08:05:34.616Z,7.02
2019-02-19T08:06:34.638Z,6.99
2019-02-19T08:07:34.666Z,7.12
2019-02-19T08:08:34.695Z,7.17
2019-02-19T08:09:34.723Z,7.30
2019-02-19T08:10:34.755Z,7.25
2019-02-19T08:11:34.779Z,7.21
2019-02-19T08:12:34.807Z,7.31
2019-02-19T08:13:34.832Z,7.30
2019-02-19T08:14:34.859Z,7.32
2019-02-19T08:15:34.887Z,7.48
2019-02-19T08:16:34.918Z,7.45
2019-02-19T08:17:34.945Z,7.49
2019-02-19T08:18:34.973Z,7.49
2019-02-19T08:19:35.000Z,7.53
2019-02-19T08:20:35.031Z,7.61
2019-02-19T08:21:35.067Z,7.67
2019-02-19T08:22:35.088Z,7.68
2019-02-19T08:23:35.113Z,7.79
2019-02-19T08:24:35.142Z,7.98
2019-02-19T08:25:35.172Z,8.01
2019-02-19T08:26:35.202Z,8.02
2019-02-19T08:27:35.302Z,8.07
2019-02-19T08:28:35.256Z,8.19
2019-02-19T08:29:35.285Z,8.22
2019-02-19T08:30:35.314Z,8.26
2019-02-19T08:31:35.345Z,8.23
2019-02-19T08:32:35.372Z,8.20
2019-02-19T08:33:35.401Z,8.34
2019-02-19T08:34:35.430Z,8.45
2019-02-19T08:35:35.457Z,8.36
2019-02-19T08:36:35.486Z,8.58
2019-02-19T08:37:35.517Z,8.47
2019-02-19T08:38:35.545Z,8.59
2019-02-19T08:39:35.573Z,8.65
2019-02-19T08:40:35.603Z,8.70
2019-02-19T08:41:35.633Z,8.87
2019-02-19T08:42:35.662Z,9.04
2019-02-19T08:43:35.691Z,9.18
2019-02-19T08:44:35.720Z,9.40
2019-02-19T08:45:35.757Z,9.51
2019-02-19T08:47:48.447Z,9.64
2019-02-19T08:48:48.650Z,9.66
2019-02-19T08:49:48.480Z,9.50
2019-02-19T08:51:55.882Z,9.51
2019-02-19T08:52:48.544Z,9.54
2019-02-19T08:53:48.776Z,9.47
2019-02-19T08:54:48.805Z,9.56
2019-02-19T08:55:48.857Z,9.58
2019-02-19T08:56:48.692Z,9.66
2019-02-19T08:57:48.714Z,9.79
2019-02-19T08:58:48.747Z,9.84
2019-02-19T08:59:48.754Z,9.93
2019-02-19T09:00:49.113Z,9.93
2019-02-19T09:01:49.142Z,9.91
2019-02-19T09:02:48.868Z,10.07
2019-02-19T09:03:48.898Z,9.90
2019-02-19T09:04:49.336Z,10.01
2019-02-19T09:05:48.958Z,9.89
2019-02-19T09:06:50.076Z,9.84
2019-02-19T09:08:49.061Z,9.78
2019-02-19T09:12:51.707Z,9.65
2019-02-19T09:13:51.964Z,9.61
2019-02-19T09:15:52.306Z,9.79
2019-02-19T09:16:52.159Z,10.11
2019-02-19T09:17:52.455Z,9.94
2019-02-19T09:23:19.114Z,10.68
2019-02-19T09:24:19.176Z,11.03
2019-02-19T09:25:19.183Z,11.21
2019-02-19T09:26:19.234Z,11.44
2019-02-19T09:27:19.239Z,11.60
2019-02-19T09:28:19.273Z,11.83
2019-02-19T09:29:19.296Z,11.94
2019-02-19T09:30:19.403Z,11.90
2019-02-19T09:32:19.389Z,11.99
2019-02-19T09:33:19.444Z,11.96
2019-02-19T09:34:19.472Z,12.09
2019-02-19T09:35:19.594Z,12.14
2019-02-19T09:36:19.546Z,12.24
2019-02-19T09:37:19.544Z,12.21
2019-02-19T09:38:19.576Z,12.21
2019-02-19T09:39:19.606Z,12.28
2019-02-19T09:40:20.349Z,12.23
2019-02-19T09:41:20.405Z,12.17
2019-02-19T09:42:19.741Z,12.27
2019-02-19T09:43:22.566Z,12.35
2019-02-19T09:44:19.763Z,12.35
2019-02-19T09:45:19.795Z,12.52
2019-02-19T09:46:19.826Z,12.62
2019-02-19T09:47:19.859Z,12.54
2019-02-19T09:48:19.889Z,12.78
2019-02-19T09:49:19.920Z,12.93
2019-02-19T09:50:19.951Z,13.10
2019-02-19T09:51:19.985Z,13.11
2019-02-19T09:52:20.017Z,13.28
2019-02-19T09:53:20.047Z,13.38
2019-02-19T09:54:20.080Z,13.62
2019-02-19T09:55:20.111Z,13.91
2019-02-19T09:56:20.179Z,13.89
2019-02-19T09:57:20.181Z,13.97
2019-02-19T09:58:20.206Z,14.17
2019-02-19T09:59:20.239Z,14.21
2019-02-19T10:00:20.272Z,14.37
2019-02-19T10:01:20.304Z,14.43
2019-02-19T10:02:20.337Z,14.83
2019-02-19T10:03:20.370Z,15.32
2019-02-19T10:05:20.437Z,16.57
2019-02-19T10:06:20.467Z,16.56
2019-02-19T10:07:20.500Z,16.35
2019-02-19T10:08:20.537Z,16.43
2019-02-19T10:09:20.567Z,16.38
2019-02-19T10:10:20.600Z,16.33
2019-02-19T10:11:20.634Z,16.12
2019-02-19T10:12:20.670Z,15.96
2019-02-19T10:13:20.701Z,16.00
2019-02-19T10:14:20.736Z,15.96
2019-02-19T10:15:20.771Z,15.89
2019-02-19T10:16:20.805Z,15.47
2019-02-19T10:17:20.838Z,15.32
2019-02-19T10:18:20.871Z,15.14
2019-02-19T10:19:20.906Z,15.11
2019-02-19T10:20:20.940Z,14.94
2019-02-19T10:21:20.975Z,14.77
2019-02-19T10:22:21.012Z,14.61
2019-02-19T10:23:21.042Z,14.70
2019-02-19T10:24:21.076Z,14.57
2019-02-19T10:25:21.110Z,14.77
2019-02-19T10:26:21.146Z,14.89
2019-02-19T10:27:21.178Z,15.03
2019-02-19T10:28:21.211Z,15.19
2019-02-19T10:29:21.245Z,15.34
2019-02-19T10:30:21.285Z,15.75
2019-02-19T10:31:21.313Z,16.35
2019-02-19T10:32:21.351Z,16.63
2019-02-19T10:33:21.450Z,16.68
2019-02-19T10:34:21.415Z,16.67
2019-02-19T10:35:21.451Z,16.66
2019-02-19T10:36:21.491Z,16.50
2019-02-19T10:37:21.518Z,16.28
2019-02-19T10:38:21.555Z,16.42
2019-02-19T10:39:21.738Z,16.45
2019-02-19T10:40:21.632Z,16.41
2019-02-19T10:41:21.658Z,16.28
2019-02-19T10:42:21.691Z,15.94
2019-02-19T10:43:23.473Z,15.84
2019-02-19T10:44:21.761Z,15.75
2019-02-19T10:45:21.796Z,15.80
2019-02-19T10:46:21.833Z,15.76
2019-02-19T10:47:21.865Z,15.56
2019-02-19T10:48:21.900Z,15.67
2019-02-19T10:49:21.933Z,15.50
2019-02-19T10:50:21.975Z,15.43
2019-02-19T10:51:22.008Z,15.36
2019-02-19T10:52:22.038Z,15.39
2019-02-19T10:53:22.072Z,15.10
2019-02-19T10:54:22.134Z,15.09
2019-02-19T10:55:22.144Z,15.16
2019-02-19T10:56:22.292Z,14.98
2019-02-19T10:57:22.210Z,14.73
2019-02-19T10:58:23.585Z,14.75
2019-02-19T10:59:22.279Z,14.70
2019-02-19T11:00:22.313Z,14.64
2019-02-19T11:01:22.346Z,14.52
2019-02-19T11:02:22.380Z,14.42
2019-02-19T11:03:22.435Z,14.32
2019-02-19T11:04:22.448Z,14.22
2019-02-19T11:05:22.535Z,14.20
2019-02-19T11:06:22.515Z,14.14
2019-02-19T11:07:22.549Z,14.21
2019-02-19T11:08:22.584Z,14.21
2019-02-19T11:09:22.617Z,14.35
2019-02-19T11:10:22.648Z,14.36
2019-02-19T11:11:22.692Z,14.25
2019-02-19T11:12:22.716Z,14.32
2019-02-19T11:13:22.764Z,14.28
2019-02-19T11:14:22.783Z,14.33
2019-02-19T11:15:22.818Z,14.22
2019-02-19T11:16:22.848Z,14.37
2019-02-19T11:17:22.882Z,14.52
2019-02-19T11:18:28.339Z,14.37
2019-02-19T11:19:22.947Z,14.35
2019-02-19T11:20:22.982Z,14.60
2019-02-19T11:21:23.025Z,14.62
2019-02-19T11:22:23.047Z,14.70
2019-02-19T11:23:23.081Z,14.68
2019-02-19T11:24:23.113Z,14.75
2019-02-19T11:25:23.150Z,14.86
2019-02-19T11:26:23.179Z,14.91
2019-02-19T11:27:23.218Z,14.72
2019-02-19T11:28:23.247Z,14.70
2019-02-19T11:29:23.280Z,14.68
2019-02-19T11:30:23.315Z,14.58
2019-02-19T11:31:23.350Z,14.64
2019-02-19T11:32:23.380Z,14.62
2019-02-19T11:33:23.415Z,14.68
2019-02-19T11:34:23.447Z,14.65
2019-02-19T11:35:23.479Z,14.62
2019-02-19T11:36:23.519Z,14.64
2019-02-19T11:37:23.545Z,14.70
2019-02-19T11:38:23.581Z,14.77
2019-02-19T11:39:23.612Z,14.61
2019-02-19T11:40:23.646Z,14.57
2019-02-19T11:41:23.678Z,14.50
2019-02-19T11:42:23.712Z,14.43
2019-02-19T11:43:23.744Z,14.47
2019-02-19T11:44:23.778Z,14.50
2019-02-19T11:45:23.811Z,14.55
2019-02-19T11:46:23.844Z,14.57
2019-02-19T11:47:26.556Z,14.50
2019-02-19T11:48:23.911Z,14.47
2019-02-19T11:49:23.943Z,14.43
2019-02-19T11:50:23.976Z,14.54
2019-02-19T11:51:24.009Z,14.47
2019-02-19T11:52:24.042Z,14.43
2019-02-19T11:53:24.075Z,14.47
2019-02-19T11:54:24.109Z,14.47
2019-02-19T11:55:24.144Z,14.37
2019-02-19T11:56:24.175Z,14.33
2019-02-19T11:57:24.210Z,14.32
2019-02-19T11:58:24.239Z,14.33
2019-02-19T11:59:24.288Z,14.50
2019-02-19T12:00:24.305Z,14.51
2019-02-19T12:01:24.337Z,14.55
2019-02-19T12:02:32.533Z,14.60
2019-02-19T12:03:24.404Z,14.72
2019-02-19T12:04:24.437Z,14.65
2019-02-19T12:05:24.470Z,14.60
2019-02-19T12:06:24.502Z,14.52
2019-02-19T12:07:24.536Z,14.52
2019-02-19T12:08:24.569Z,14.50
2019-02-19T12:09:24.600Z,14.54
2019-02-19T12:10:24.633Z,14.50
2019-02-19T12:11:24.666Z,14.43
2019-02-19T12:12:24.700Z,14.28
2019-02-19T12:13:24.733Z,14.21
2019-02-19T12:14:24.765Z,13.92
2019-02-19T12:15:24.798Z,13.97
2019-02-19T12:16:24.832Z,13.92
2019-02-19T12:17:24.863Z,14.09
2019-02-19T12:18:24.895Z,14.14
2019-02-19T12:19:24.928Z,14.33
2019-02-19T12:20:24.961Z,14.55
2019-02-19T12:21:24.993Z,14.35
2019-02-19T12:22:25.026Z,14.35
2019-02-19T12:23:25.059Z,14.32
2019-02-19T12:24:25.091Z,14.24
2019-02-19T12:25:25.125Z,14.15
2019-02-19T12:26:25.157Z,14.21
2019-02-19T12:27:25.191Z,14.18
2019-02-19T12:28:25.223Z,14.24
2019-02-19T12:29:25.257Z,14.29
2019-02-19T12:30:25.287Z,14.51
2019-02-19T12:31:25.320Z,14.55
2019-02-19T12:32:25.354Z,14.70
2019-02-19T12:33:25.386Z,14.73
2019-02-19T12:34:25.428Z,14.75
2019-02-19T12:35:25.451Z,14.78
2019-02-19T12:36:25.492Z,14.78
2019-02-19T12:37:25.516Z,14.83
2019-02-19T12:38:25.550Z,14.75
2019-02-19T12:39:25.583Z,14.61
2019-02-19T12:40:25.615Z,14.47
2019-02-19T12:41:25.646Z,14.27
2019-02-19T12:42:25.679Z,14.20
2019-02-19T12:43:25.715Z,14.04
2019-02-19T12:44:25.746Z,13.96
2019-02-19T12:45:25.778Z,13.84
2019-02-19T12:46:25.818Z,13.87
2019-02-19T12:47:25.843Z,13.82
2019-02-19T12:48:25.876Z,13.75
2019-02-19T12:49:25.908Z,13.67
2019-02-19T12:50:25.941Z,13.67
2019-02-19T12:51:26.745Z,13.60
2019-02-19T12:52:26.007Z,13.59
2019-02-19T12:53:26.040Z,13.55
2019-02-19T12:54:26.075Z,13.54
2019-02-19T12:55:26.103Z,13.46
2019-02-19T12:56:26.140Z,13.44
2019-02-19T12:57:26.168Z,13.42
2019-02-19T12:58:26.201Z,13.42
2019-02-19T12:59:26.235Z,13.41
2019-02-19T13:00:26.264Z,13.32
2019-02-19T13:01:26.296Z,13.38
2019-02-19T13:02:26.330Z,13.30
2019-02-19T13:03:26.362Z,13.28
2019-02-19T13:04:26.394Z,13.19
2019-02-19T13:05:26.424Z,13.12
2019-02-19T13:06:26.462Z,13.10
2019-02-19T13:07:26.493Z,13.12
2019-02-19T13:08:26.521Z,13.11
2019-02-19T13:09:26.553Z,12.92
2019-02-19T13:10:26.590Z,13.07
2019-02-19T13:11:26.615Z,12.95
2019-02-19T13:12:26.647Z,12.90
2019-02-19T13:13:26.680Z,12.90
2019-02-19T13:14:26.709Z,12.82
2019-02-19T13:15:26.742Z,12.93
2019-02-19T13:16:26.773Z,12.77
2019-02-19T13:17:26.805Z,12.90
2019-02-19T13:18:26.840Z,12.89
2019-02-19T13:19:26.867Z,12.90
2019-02-19T13:20:26.899Z,12.89
2019-02-19T13:21:26.930Z,12.83
2019-02-19T13:22:26.960Z,12.77
2019-02-19T13:23:26.992Z,12.82
2019-02-19T13:24:27.024Z,12.72